createdAt,value
2023-03-26T00:00:34.687Z,82.54
2023-03-26T00:01:37.064Z,82.62
2023-03-26T00:02:40.044Z,82.86
2023-03-26T00:03:42.867Z,82.91
2023-03-26T00:04:46.909Z,82.95
2023-03-26T00:05:49.284Z,83.23
2023-03-26T00:06:51.379Z,83.86
2023-03-26T00:07:53.343Z,83.78
2023-03-26T00:08:57.964Z,83.92
2023-03-26T00:10:00.025Z,83.76
2023-03-26T00:11:04.269Z,83.60
2023-03-26T00:12:06.472Z,83.97
2023-03-26T00:13:08.780Z,83.46
2023-03-26T00:14:14.300Z,83.40
2023-03-26T00:15:16.395Z,84.16
2023-03-26T00:16:20.531Z,83.93
2023-03-26T00:17:22.925Z,84.04
2023-03-26T00:18:30.998Z,83.49
2023-03-26T00:19:34.145Z,84.18
2023-03-26T00:20:36.122Z,83.28
2023-03-26T00:21:38.100Z,82.94
2023-03-26T00:22:41.834Z,84.28
2023-03-26T00:23:44.490Z,83.96
2023-03-26T00:24:49.527Z,83.67
2023-03-26T00:25:52.170Z,84.73
2023-03-26T00:26:55.359Z,84.68
2023-03-26T00:27:57.557Z,83.70
2023-03-26T00:29:00.478Z,83.54
2023-03-26T00:30:04.309Z,83.59
2023-03-26T00:31:17.695Z,82.93
2023-03-26T00:32:21.004Z,83.49
2023-03-26T00:33:23.238Z,82.42
2023-03-26T00:34:26.605Z,82.32
2023-03-26T00:35:31.716Z,83.08
2023-03-26T00:36:36.328Z,82.48
2023-03-26T00:37:38.454Z,83.53
2023-03-26T00:38:41.567Z,83.49
2023-03-26T00:39:44.900Z,83.58
2023-03-26T00:40:48.434Z,83.67
2023-03-26T00:41:54.854Z,83.89
2023-03-26T00:42:56.968Z,83.91
2023-03-26T00:44:00.302Z,84.18
2023-03-26T00:45:02.211Z,83.94
2023-03-26T00:46:04.423Z,85.00
2023-03-26T00:47:06.681Z,85.72
2023-03-26T00:48:08.750Z,85.10
2023-03-26T00:49:11.244Z,85.96
2023-03-26T00:50:15.744Z,85.79
2023-03-26T00:51:19.932Z,84.74
2023-03-26T00:52:22.170Z,84.47
2023-03-26T00:53:24.217Z,84.74
2023-03-26T00:54:27.534Z,84.03
2023-03-26T00:55:29.522Z,84.04
2023-03-26T00:56:31.832Z,83.85
2023-03-26T00:57:35.906Z,82.80
2023-03-26T00:58:39.228Z,83.41
2023-03-26T00:59:42.672Z,83.10
2023-03-26T01:00:59.342Z,83.06
2023-03-26T01:02:01.661Z,83.08
2023-03-26T01:03:05.435Z,83.59
2023-03-26T01:04:28.519Z,84.21
2023-03-26T01:05:36.310Z,83.76
2023-03-26T01:06:42.403Z,84.32
2023-03-26T01:07:45.035Z,83.62
2023-03-26T01:08:49.696Z,83.01
2023-03-26T01:09:52.034Z,83.71
2023-03-26T01:11:03.086Z,83.85
2023-03-26T01:12:09.445Z,83.83
2023-03-26T01:13:11.623Z,84.35
2023-03-26T01:14:18.725Z,83.60
2023-03-26T01:15:22.597Z,84.01
2023-03-26T01:16:45.564Z,84.11
2023-03-26T01:17:47.530Z,83.71
2023-03-26T01:18:50.352Z,83.85
2023-03-26T01:20:01.651Z,83.05
2023-03-26T01:21:09.580Z,82.93
2023-03-26T01:22:18.485Z,82.55
2023-03-26T01:23:25.062Z,82.95
2023-03-26T01:24:27.445Z,83.50
2023-03-26T01:25:32.267Z,82.84
2023-03-26T01:27:10.042Z,82.13
2023-03-26T01:28:12.860Z,81.90
2023-03-26T01:29:43.940Z,82.56
2023-03-26T01:30:58.918Z,82.86
2023-03-26T01:32:13.986Z,82.50
2023-03-26T01:33:37.104Z,83.67
2023-03-26T01:34:49.993Z,84.69
2023-03-26T01:35:55.122Z,84.47
2023-03-26T01:37:13.594Z,85.43
2023-03-26T01:38:31.304Z,84.49
2023-03-26T01:39:42.792Z,85.07
2023-03-26T01:40:55.310Z,84.72
2023-03-26T01:42:03.177Z,85.17
2023-03-26T01:43:11.796Z,84.09
2023-03-26T01:44:28.985Z,83.62
2023-03-26T01:45:34.965Z,84.25
2023-03-26T01:46:37.877Z,83.79
2023-03-26T01:47:42.602Z,84.01
2023-03-26T01:48:47.218Z,84.91
2023-03-26T01:49:49.323Z,85.22
2023-03-26T01:50:54.145Z,85.57
2023-03-26T01:51:58.449Z,85.71
2023-03-26T01:53:01.040Z,85.39
2023-03-26T01:54:06.207Z,85.71
2023-03-26T01:55:11.929Z,86.05
2023-03-26T01:56:37.017Z,85.61
2023-03-26T01:57:49.996Z,85.63
2023-03-26T01:58:57.845Z,86.88
2023-03-26T02:00:12.407Z,86.49
2023-03-26T02:01:30.437Z,85.33
2023-03-26T02:02:44.412Z,85.05
2023-03-26T02:04:20.663Z,85.13
2023-03-26T02:05:32.317Z,85.53
2023-03-26T02:06:45.931Z,84.15
2023-03-26T02:08:22.911Z,84.59
2023-03-26T02:09:31.175Z,85.52
2023-03-26T02:10:38.439Z,84.99
2023-03-26T02:11:41.879Z,85.98
2023-03-26T02:12:45.028Z,85.43
2023-03-26T02:13:47.282Z,86.24
2023-03-26T02:14:49.761Z,86.23
2023-03-26T02:15:55.309Z,86.67
2023-03-26T02:16:58.792Z,86.41
2023-03-26T02:18:02.153Z,86.31
2023-03-26T02:19:04.746Z,86.34
2023-03-26T02:20:11.203Z,86.69
2023-03-26T02:21:20.580Z,87.19
2023-03-26T02:22:22.872Z,87.31
2023-03-26T02:23:24.796Z,86.98
2023-03-26T02:24:27.305Z,86.97
2023-03-26T02:25:29.087Z,87.28
2023-03-26T02:26:33.873Z,87.29
2023-03-26T02:27:37.004Z,87.02
2023-03-26T02:28:39.082Z,86.68
2023-03-26T02:29:42.859Z,87.55
2023-03-26T02:30:46.105Z,87.35
2023-03-26T02:31:51.395Z,86.17
2023-03-26T02:32:54.491Z,86.54
2023-03-26T02:33:57.745Z,86.28
2023-03-26T02:35:00.186Z,85.05
2023-03-26T02:36:02.727Z,85.75
2023-03-26T02:37:04.782Z,84.89
2023-03-26T02:38:06.894Z,84.77
2023-03-26T02:39:14.532Z,85.27
2023-03-26T02:40:21.565Z,84.77
2023-03-26T02:41:23.717Z,84.42
2023-03-26T02:42:25.860Z,85.77
2023-03-26T02:43:28.666Z,84.67
2023-03-26T02:44:30.739Z,85.32
2023-03-26T02:45:32.792Z,84.77
2023-03-26T02:46:34.869Z,84.70
2023-03-26T02:47:36.772Z,84.77
2023-03-26T02:48:38.796Z,84.78
2023-03-26T02:49:40.898Z,84.63
2023-03-26T02:50:43.880Z,83.69
2023-03-26T02:51:46.044Z,83.93
2023-03-26T02:52:50.114Z,83.95
2023-03-26T02:53:53.955Z,84.32
2023-03-26T02:54:56.640Z,84.57
2023-03-26T02:56:00.582Z,84.41
2023-03-26T02:57:03.033Z,84.77
2023-03-26T02:58:04.808Z,83.60
2023-03-26T02:59:06.796Z,83.77
2023-03-26T03:00:09.713Z,83.67
2023-03-26T03:01:11.789Z,84.13
2023-03-26T03:02:13.840Z,84.78
2023-03-26T03:03:17.525Z,85.33
2023-03-26T03:04:19.744Z,84.84
2023-03-26T03:05:26.746Z,85.28
2023-03-26T03:06:31.246Z,85.00
2023-03-26T03:07:33.215Z,84.94
2023-03-26T03:08:35.200Z,84.28
2023-03-26T03:09:37.398Z,84.08
2023-03-26T03:10:40.013Z,83.67
2023-03-26T03:11:42.801Z,83.51
2023-03-26T03:12:44.813Z,83.37
2023-03-26T03:13:47.132Z,83.71
2023-03-26T03:14:49.086Z,83.16
2023-03-26T03:15:51.774Z,82.62
2023-03-26T03:16:54.172Z,83.77
2023-03-26T03:17:56.054Z,83.82
2023-03-26T03:18:58.501Z,83.35
2023-03-26T03:20:00.803Z,83.46
2023-03-26T03:21:03.531Z,83.98
2023-03-26T03:22:05.557Z,83.65
2023-03-26T03:23:07.471Z,83.37
2023-03-26T03:24:11.882Z,83.57
2023-03-26T03:25:14.881Z,83.87
2023-03-26T03:26:22.032Z,83.92
2023-03-26T03:27:26.491Z,84.16
2023-03-26T03:28:28.772Z,83.90
2023-03-26T03:29:30.761Z,84.05
2023-03-26T03:30:32.738Z,83.62
2023-03-26T03:31:34.761Z,83.15
2023-03-26T03:32:37.950Z,83.14
2023-03-26T03:33:41.719Z,83.42
2023-03-26T03:34:43.703Z,82.79
2023-03-26T03:35:46.210Z,82.54
2023-03-26T03:36:48.981Z,82.29
2023-03-26T03:37:51.496Z,82.66
2023-03-26T03:38:53.574Z,82.39
2023-03-26T03:39:55.582Z,82.83
2023-03-26T03:40:57.592Z,83.33
2023-03-26T03:41:59.548Z,84.38
2023-03-26T03:43:01.608Z,84.15
2023-03-26T03:44:03.598Z,84.04
2023-03-26T03:45:06.829Z,84.82
2023-03-26T03:46:08.875Z,84.43
2023-03-26T03:47:13.923Z,84.03
2023-03-26T03:48:15.969Z,84.84
2023-03-26T03:49:17.882Z,84.67
2023-03-26T03:50:20.070Z,84.10
2023-03-26T03:51:22.132Z,84.57
2023-03-26T03:52:24.191Z,85.54
2023-03-26T03:53:29.426Z,85.10
2023-03-26T03:54:31.656Z,86.01
2023-03-26T03:55:33.673Z,86.26
2023-03-26T03:56:36.266Z,86.80
2023-03-26T03:57:38.503Z,86.31
2023-03-26T03:58:41.721Z,86.66
2023-03-26T03:59:47.458Z,86.52
2023-03-26T04:00:52.014Z,87.14
2023-03-26T04:01:53.961Z,87.50
2023-03-26T04:02:56.557Z,87.57
2023-03-26T04:03:59.269Z,86.95
2023-03-26T04:05:02.727Z,86.82
2023-03-26T04:06:07.174Z,86.60
2023-03-26T04:07:09.106Z,86.34
2023-03-26T04:08:11.149Z,86.83
2023-03-26T04:09:13.243Z,86.65
2023-03-26T04:10:16.252Z,86.52
2023-03-26T04:11:18.580Z,86.76
2023-03-26T04:12:20.607Z,87.79
2023-03-26T04:13:22.651Z,86.91
2023-03-26T04:14:24.702Z,87.40
2023-03-26T04:15:26.647Z,87.39
2023-03-26T04:16:28.729Z,86.44
2023-03-26T04:17:31.056Z,86.32
2023-03-26T04:18:33.074Z,86.20
2023-03-26T04:19:35.283Z,86.02
2023-03-26T04:20:38.874Z,85.20
2023-03-26T04:21:43.067Z,85.11
2023-03-26T04:22:45.463Z,85.37
2023-03-26T04:23:47.294Z,84.53
2023-03-26T04:24:50.411Z,85.26
2023-03-26T04:25:54.763Z,86.27
2023-03-26T04:26:58.559Z,85.82
2023-03-26T04:28:06.757Z,85.79
2023-03-26T04:29:12.999Z,86.88
2023-03-26T04:30:20.864Z,87.63
2023-03-26T04:31:29.558Z,87.25
2023-03-26T04:32:35.792Z,86.79
2023-03-26T04:33:41.762Z,86.86
2023-03-26T04:34:46.363Z,86.93
2023-03-26T04:35:48.849Z,86.98
2023-03-26T04:36:54.833Z,87.69
2023-03-26T04:37:57.004Z,87.29
2023-03-26T04:39:02.788Z,87.53
2023-03-26T04:40:08.393Z,87.93
2023-03-26T04:41:12.901Z,87.45
2023-03-26T04:42:15.598Z,87.37
2023-03-26T04:43:18.274Z,87.04
2023-03-26T04:44:22.634Z,87.81
2023-03-26T04:45:24.757Z,87.19
2023-03-26T04:46:26.797Z,87.22
2023-03-26T04:47:29.367Z,87.44
2023-03-26T04:48:31.364Z,86.72
2023-03-26T04:49:33.396Z,86.88
2023-03-26T04:50:35.639Z,86.65
2023-03-26T04:51:39.523Z,86.17
2023-03-26T04:52:44.560Z,86.55
2023-03-26T04:53:58.049Z,87.05
2023-03-26T04:55:00.209Z,87.30
2023-03-26T04:56:39.855Z,88.07
2023-03-26T04:57:46.495Z,87.92
2023-03-26T04:58:50.569Z,87.66
2023-03-26T04:59:52.693Z,87.10
2023-03-26T05:00:54.683Z,87.00
2023-03-26T05:02:00.276Z,86.91
2023-03-26T05:03:02.315Z,86.94
2023-03-26T05:04:04.517Z,86.25
2023-03-26T05:05:06.797Z,86.34
2023-03-26T05:06:11.692Z,85.78
2023-03-26T05:07:19.392Z,85.33
2023-03-26T05:08:21.461Z,85.68
2023-03-26T05:09:23.407Z,85.20
2023-03-26T05:10:25.603Z,85.93
2023-03-26T05:11:28.785Z,86.23
2023-03-26T05:12:31.138Z,85.47
2023-03-26T05:13:33.014Z,85.62
2023-03-26T05:14:36.476Z,85.45
2023-03-26T05:15:38.501Z,85.60
2023-03-26T05:16:41.623Z,85.38
2023-03-26T05:17:43.865Z,86.01
2023-03-26T05:18:47.012Z,86.35
2023-03-26T05:19:49.207Z,86.19
2023-03-26T05:20:52.253Z,86.63
2023-03-26T05:21:54.210Z,86.29
2023-03-26T05:22:56.725Z,85.80
2023-03-26T05:23:58.663Z,86.53
2023-03-26T05:25:00.954Z,86.31
2023-03-26T05:26:03.095Z,86.04
2023-03-26T05:27:05.016Z,85.67
2023-03-26T05:28:07.061Z,85.16
2023-03-26T05:29:09.240Z,85.43
2023-03-26T05:30:16.105Z,84.90
2023-03-26T05:31:21.615Z,84.72
2023-03-26T05:32:23.603Z,84.71
2023-03-26T05:33:26.183Z,84.17
2023-03-26T05:34:28.229Z,83.91
2023-03-26T05:35:31.248Z,84.18
2023-03-26T05:36:33.632Z,84.18
2023-03-26T05:37:35.820Z,84.08
2023-03-26T05:38:37.802Z,84.53
2023-03-26T05:39:41.478Z,84.75
2023-03-26T05:40:43.398Z,84.91
2023-03-26T05:41:45.281Z,85.31
2023-03-26T05:42:47.675Z,85.14
2023-03-26T05:43:49.597Z,85.73
2023-03-26T05:44:51.615Z,84.96
2023-03-26T05:45:54.111Z,85.34
2023-03-26T05:46:56.214Z,85.34
2023-03-26T05:47:58.248Z,85.87
2023-03-26T05:49:00.268Z,85.11
2023-03-26T05:50:02.402Z,85.05
2023-03-26T05:51:05.573Z,84.33
2023-03-26T05:52:07.761Z,85.27
2023-03-26T05:53:09.918Z,84.94
2023-03-26T05:54:12.602Z,85.15
2023-03-26T05:55:14.681Z,85.05
2023-03-26T05:56:16.645Z,85.71
2023-03-26T05:57:19.156Z,85.79
2023-03-26T05:58:21.169Z,84.66
2023-03-26T05:59:24.050Z,84.80
2023-03-26T06:00:26.133Z,85.36
2023-03-26T06:01:29.644Z,85.37
2023-03-26T06:02:31.928Z,85.05
2023-03-26T06:03:40.690Z,84.81
2023-03-26T06:04:42.913Z,84.81
2023-03-26T06:05:44.904Z,84.34
2023-03-26T06:06:47.220Z,84.73
2023-03-26T06:07:49.209Z,84.19
2023-03-26T06:09:01.432Z,85.04
2023-03-26T06:10:05.270Z,84.68
2023-03-26T06:11:08.362Z,84.49
2023-03-26T06:12:11.831Z,84.62
2023-03-26T06:13:13.888Z,84.11
2023-03-26T06:14:16.082Z,84.55
2023-03-26T06:15:18.277Z,84.17
2023-03-26T06:16:27.757Z,84.47
2023-03-26T06:17:30.365Z,83.75
2023-03-26T06:18:32.481Z,84.01
2023-03-26T06:19:34.486Z,83.22
2023-03-26T06:20:36.944Z,83.69
2023-03-26T06:21:38.740Z,84.41
2023-03-26T06:22:40.745Z,83.88
2023-03-26T06:23:42.800Z,84.33
2023-03-26T06:24:44.762Z,83.32
2023-03-26T06:25:48.065Z,83.90
2023-03-26T06:26:50.180Z,84.10
2023-03-26T06:27:52.208Z,83.09
2023-03-26T06:28:54.173Z,83.04
2023-03-26T06:29:56.381Z,84.22
2023-03-26T06:31:01.848Z,84.16
2023-03-26T06:32:16.192Z,84.12
2023-03-26T06:33:24.085Z,84.59
2023-03-26T06:34:26.686Z,84.58
2023-03-26T06:35:30.346Z,84.95
2023-03-26T06:36:32.453Z,84.42
2023-03-26T06:37:34.568Z,84.86
2023-03-26T06:38:36.767Z,84.90
2023-03-26T06:39:38.866Z,83.53
2023-03-26T06:40:40.936Z,84.27
2023-03-26T06:41:43.055Z,83.62
2023-03-26T06:43:07.595Z,83.98
2023-03-26T06:44:07.162Z,82.77
2023-03-26T06:45:09.645Z,82.94
2023-03-26T06:46:12.457Z,83.43
2023-03-26T06:47:14.528Z,83.28
2023-03-26T06:48:16.666Z,83.77
2023-03-26T06:49:18.796Z,83.34
2023-03-26T06:50:20.957Z,83.59
2023-03-26T06:51:22.959Z,83.44
2023-03-26T06:52:25.048Z,82.76
2023-03-26T06:53:28.500Z,83.56
2023-03-26T06:54:30.640Z,82.97
2023-03-26T06:55:32.622Z,83.00
2023-03-26T06:56:34.758Z,82.87
2023-03-26T06:57:37.911Z,83.37
2023-03-26T06:58:39.937Z,83.86
2023-03-26T06:59:41.919Z,82.66
2023-03-26T07:00:44.106Z,82.97
2023-03-26T07:01:46.898Z,83.12
2023-03-26T07:02:49.138Z,82.59
2023-03-26T07:03:51.272Z,83.71
2023-03-26T07:04:53.798Z,84.56
2023-03-26T07:05:55.603Z,84.52
2023-03-26T07:07:04.932Z,85.41
2023-03-26T07:08:07.178Z,85.51
2023-03-26T07:09:09.190Z,85.27
2023-03-26T07:10:11.288Z,84.83
2023-03-26T07:11:13.368Z,85.74
2023-03-26T07:12:15.680Z,86.02
2023-03-26T07:13:17.705Z,85.84
2023-03-26T07:14:19.756Z,85.92
2023-03-26T07:15:21.861Z,85.69
2023-03-26T07:16:23.981Z,85.37
2023-03-26T07:17:26.069Z,84.80
2023-03-26T07:18:28.154Z,84.84
2023-03-26T07:19:30.227Z,84.54
2023-03-26T07:20:32.505Z,84.06
2023-03-26T07:21:34.624Z,83.92
2023-03-26T07:22:37.165Z,83.79
2023-03-26T07:23:39.147Z,83.66
2023-03-26T07:24:41.475Z,82.96
2023-03-26T07:25:43.356Z,83.65
2023-03-26T07:26:51.064Z,82.97
2023-03-26T07:28:12.504Z,83.65
2023-03-26T07:29:33.159Z,83.72
2023-03-26T07:30:50.224Z,83.36
2023-03-26T07:32:18.572Z,82.83
2023-03-26T07:33:40.483Z,83.29
2023-03-26T07:35:06.201Z,82.36
2023-03-26T07:36:26.920Z,82.64
2023-03-26T07:37:39.324Z,83.09
2023-03-26T07:38:55.918Z,83.13
2023-03-26T07:40:22.578Z,82.54
2023-03-26T07:41:36.443Z,82.47
2023-03-26T07:42:57.073Z,82.79
2023-03-26T07:44:41.241Z,82.52
2023-03-26T07:45:44.772Z,82.08
2023-03-26T07:46:48.315Z,82.76
2023-03-26T07:47:53.732Z,82.44
2023-03-26T07:48:58.581Z,83.17
2023-03-26T07:50:01.076Z,83.06
2023-03-26T07:51:04.032Z,82.57
2023-03-26T07:52:06.350Z,82.24
2023-03-26T07:53:08.517Z,81.18
2023-03-26T07:54:11.478Z,81.25
2023-03-26T07:55:17.543Z,80.57
2023-03-26T07:56:41.636Z,80.63
2023-03-26T07:57:55.174Z,79.96
2023-03-26T07:59:29.350Z,78.36
2023-03-26T08:00:35.478Z,77.82
2023-03-26T08:01:52.741Z,77.71
2023-03-26T08:03:17.134Z,77.94
2023-03-26T08:04:42.620Z,77.94
2023-03-26T08:06:15.089Z,76.51
2023-03-26T08:07:41.886Z,75.72
2023-03-26T08:09:04.158Z,75.20
2023-03-26T08:10:26.857Z,74.62
2023-03-26T08:12:27.229Z,74.80
2023-03-26T08:13:57.351Z,74.07
2023-03-26T08:15:11.460Z,73.87
2023-03-26T08:16:26.587Z,73.19
2023-03-26T08:18:04.331Z,73.04
2023-03-26T08:19:25.694Z,73.41
2023-03-26T08:20:59.963Z,73.55
2023-03-26T08:22:27.820Z,73.11
2023-03-26T08:24:00.485Z,73.32
2023-03-26T08:25:19.723Z,71.87
2023-03-26T08:26:24.135Z,71.37
2023-03-26T08:27:41.355Z,71.97
2023-03-26T08:28:59.238Z,71.60
2023-03-26T08:30:08.760Z,71.41
2023-03-26T08:31:13.912Z,71.28
2023-03-26T08:32:20.219Z,71.50
2023-03-26T08:33:26.106Z,70.12
2023-03-26T08:34:28.131Z,69.47
2023-03-26T08:35:30.362Z,69.12
2023-03-26T08:36:32.624Z,68.03
2023-03-26T08:37:34.642Z,68.15
2023-03-26T08:38:36.740Z,67.92
2023-03-26T08:39:40.158Z,67.03
2023-03-26T08:41:10.716Z,67.62
2023-03-26T08:42:36.978Z,68.33
2023-03-26T08:44:23.710Z,68.33
2023-03-26T08:45:37.849Z,67.93
2023-03-26T08:47:04.667Z,68.42
2023-03-26T08:48:50.741Z,67.38
2023-03-26T08:50:43.669Z,67.78
2023-03-26T08:52:26.618Z,66.85
2023-03-26T08:53:58.566Z,67.08
2023-03-26T08:55:09.170Z,64.95
2023-03-26T08:56:29.894Z,65.06
2023-03-26T08:57:34.871Z,65.80
2023-03-26T08:59:01.238Z,63.73
2023-03-26T09:00:22.402Z,62.50
2023-03-26T09:01:24.352Z,64.47
2023-03-26T09:02:58.512Z,63.27
2023-03-26T09:04:12.202Z,62.73
2023-03-26T09:05:44.568Z,61.02
2023-03-26T09:07:38.144Z,60.15
2023-03-26T09:08:53.795Z,59.15
2023-03-26T09:10:12.161Z,59.95
2023-03-26T09:11:37.541Z,58.43
2023-03-26T09:12:57.901Z,56.43
2023-03-26T09:14:47.447Z,57.58
2023-03-26T09:16:31.525Z,57.64
2023-03-26T09:18:12.445Z,58.18
2023-03-26T09:19:38.811Z,57.21
2023-03-26T09:21:25.817Z,56.54
2023-03-26T09:22:48.718Z,57.74
2023-03-26T09:23:58.094Z,56.95
2023-03-26T09:25:15.893Z,56.56
2023-03-26T09:27:11.261Z,56.80
2023-03-26T09:28:13.033Z,56.27
2023-03-26T09:29:32.750Z,57.19
2023-03-26T09:30:38.266Z,56.71
2023-03-26T09:31:58.468Z,55.65
2023-03-26T09:33:21.623Z,54.65
2023-03-26T09:34:49.196Z,55.06
2023-03-26T09:36:18.916Z,54.00
2023-03-26T09:37:27.008Z,54.26
2023-03-26T09:38:52.446Z,53.81
2023-03-26T09:40:15.692Z,54.50
2023-03-26T09:41:18.666Z,53.63
2023-03-26T09:42:39.035Z,54.78
2023-03-26T09:43:46.841Z,53.45
2023-03-26T09:44:54.210Z,53.67
2023-03-26T09:46:04.750Z,53.70
2023-03-26T09:47:22.630Z,53.25
2023-03-26T09:49:16.170Z,51.22
2023-03-26T09:50:29.923Z,50.84
2023-03-26T09:51:50.464Z,50.07
2023-03-26T09:53:20.158Z,51.27
2023-03-26T09:54:51.969Z,49.59
2023-03-26T09:56:09.653Z,49.56
2023-03-26T09:57:30.108Z,49.30
2023-03-26T09:58:51.701Z,50.49
2023-03-26T09:59:59.907Z,48.83
2023-03-26T10:01:18.754Z,48.89
2023-03-26T10:02:46.672Z,47.36
2023-03-26T10:03:53.534Z,46.07
2023-03-26T10:05:13.832Z,46.30
2023-03-26T10:06:15.904Z,46.93
2023-03-26T10:07:35.548Z,47.03
2023-03-26T10:08:47.601Z,47.52
2023-03-26T10:09:57.399Z,48.11
2023-03-26T10:11:02.537Z,47.96
2023-03-26T10:12:16.422Z,47.80
2023-03-26T10:13:23.857Z,47.42
2023-03-26T10:14:42.902Z,46.46
2023-03-26T10:16:05.015Z,48.26
2023-03-26T10:17:22.075Z,47.93
2023-03-26T10:18:49.088Z,49.23
2023-03-26T10:20:09.883Z,48.55
2023-03-26T10:21:17.391Z,47.51
2023-03-26T10:22:38.055Z,47.26
2023-03-26T10:23:48.622Z,46.44
2023-03-26T10:24:59.617Z,47.18
2023-03-26T10:26:11.632Z,48.27
2023-03-26T10:27:24.664Z,48.26
2023-03-26T10:28:36.669Z,47.37
2023-03-26T10:30:00.562Z,48.37
2023-03-26T10:31:08.303Z,49.26
2023-03-26T10:32:29.937Z,48.59
2023-03-26T10:33:42.686Z,48.08
2023-03-26T10:34:53.386Z,47.72
2023-03-26T10:36:13.865Z,47.21
2023-03-26T10:37:16.574Z,48.61
2023-03-26T10:38:56.972Z,47.79
2023-03-26T10:40:17.590Z,47.39
2023-03-26T10:41:37.946Z,49.17
2023-03-26T10:42:58.281Z,49.18
2023-03-26T10:44:09.255Z,48.38
2023-03-26T10:45:13.928Z,49.44
2023-03-26T10:46:15.845Z,47.94
2023-03-26T10:47:24.424Z,49.45
2023-03-26T10:48:42.171Z,50.05
2023-03-26T10:50:02.888Z,49.87
2023-03-26T10:51:04.789Z,49.59
2023-03-26T10:52:16.549Z,48.85
2023-03-26T10:53:21.409Z,47.58
2023-03-26T10:54:51.079Z,48.46
2023-03-26T10:55:58.806Z,48.04
2023-03-26T10:57:04.648Z,47.51
2023-03-26T10:58:19.309Z,48.89
2023-03-26T10:59:21.673Z,46.64
2023-03-26T11:00:27.553Z,46.84
2023-03-26T11:01:42.338Z,47.89
2023-03-26T11:03:08.236Z,48.59
2023-03-26T11:04:42.520Z,46.71
2023-03-26T11:06:13.838Z,46.98
2023-03-26T11:07:33.953Z,48.01
2023-03-26T11:09:02.131Z,48.36
2023-03-26T11:10:41.583Z,47.14
2023-03-26T11:12:03.487Z,46.54
2023-03-26T11:14:03.812Z,46.80
2023-03-26T11:15:18.286Z,47.42
2023-03-26T11:16:28.822Z,45.20
2023-03-26T11:17:46.494Z,45.96
2023-03-26T11:18:59.601Z,45.59
2023-03-26T11:20:08.695Z,46.22
2023-03-26T11:21:22.915Z,45.55
2023-03-26T11:22:48.911Z,45.63
2023-03-26T11:24:29.454Z,43.91
2023-03-26T11:26:09.874Z,44.02
2023-03-26T11:27:19.717Z,45.29
2023-03-26T11:29:03.124Z,43.16
2023-03-26T11:30:14.579Z,45.27
2023-03-26T11:31:34.974Z,43.36
2023-03-26T11:32:39.343Z,44.27
2023-03-26T11:33:47.387Z,45.37
2023-03-26T11:34:59.731Z,43.61
2023-03-26T11:36:03.921Z,44.34
2023-03-26T11:37:08.775Z,44.92
2023-03-26T11:38:22.317Z,46.69
2023-03-26T11:39:26.443Z,44.60
2023-03-26T11:40:37.445Z,46.31
2023-03-26T11:41:39.686Z,44.63
2023-03-26T11:42:42.542Z,45.05
2023-03-26T11:43:46.588Z,45.65
2023-03-26T11:44:53.598Z,45.59
2023-03-26T11:45:55.758Z,45.68
2023-03-26T11:47:04.577Z,46.41
2023-03-26T11:48:09.826Z,46.25
2023-03-26T11:49:15.037Z,46.79
2023-03-26T11:50:30.831Z,45.78
2023-03-26T11:51:35.530Z,44.71
2023-03-26T11:52:37.792Z,44.67
2023-03-26T11:53:40.095Z,44.86
2023-03-26T11:54:43.668Z,46.30
2023-03-26T11:56:05.371Z,44.66
2023-03-26T11:57:16.818Z,44.80
2023-03-26T11:58:28.225Z,46.11
2023-03-26T11:59:55.896Z,44.53
2023-03-26T12:00:59.326Z,43.66
2023-03-26T12:02:10.417Z,44.72
2023-03-26T12:03:16.325Z,45.71
2023-03-26T12:04:19.686Z,46.35
2023-03-26T12:05:31.822Z,44.88
2023-03-26T12:06:34.828Z,46.37
2023-03-26T12:07:37.504Z,45.70
2023-03-26T12:08:40.367Z,45.44
2023-03-26T12:09:52.578Z,45.05
2023-03-26T12:11:04.115Z,44.82
2023-03-26T12:12:06.501Z,46.11
2023-03-26T12:13:35.205Z,45.49
2023-03-26T12:14:42.866Z,45.90
2023-03-26T12:15:44.926Z,46.24
2023-03-26T12:17:07.007Z,46.38
2023-03-26T12:18:26.333Z,45.50
2023-03-26T12:19:34.319Z,46.07
2023-03-26T12:20:37.533Z,47.29
2023-03-26T12:21:59.843Z,46.22
2023-03-26T12:23:02.771Z,46.91
2023-03-26T12:24:08.971Z,45.92
2023-03-26T12:25:16.394Z,47.03
2023-03-26T12:26:21.014Z,46.17
2023-03-26T12:27:28.850Z,46.64
2023-03-26T12:28:33.802Z,45.72
2023-03-26T12:29:36.164Z,45.49
2023-03-26T12:30:40.031Z,45.81
2023-03-26T12:32:03.091Z,46.12
2023-03-26T12:33:07.609Z,46.12
2023-03-26T12:34:15.697Z,46.21
2023-03-26T12:35:27.134Z,46.77
2023-03-26T12:36:31.308Z,47.37
2023-03-26T12:37:37.697Z,46.19
2023-03-26T12:38:41.008Z,46.53
2023-03-26T12:40:09.854Z,47.65
2023-03-26T12:41:08.250Z,48.28
2023-03-26T12:42:36.906Z,46.76
2023-03-26T12:44:52.690Z,46.91
2023-03-26T12:45:41.182Z,47.18
2023-03-26T12:47:57.272Z,46.03
2023-03-26T12:48:13.712Z,47.62
2023-03-26T12:49:15.875Z,47.73
2023-03-26T12:50:17.892Z,47.58
2023-03-26T12:51:43.544Z,48.53
2023-03-26T12:52:45.541Z,49.07
2023-03-26T12:53:59.684Z,48.15
2023-03-26T12:55:12.242Z,47.90
2023-03-26T12:56:20.120Z,47.28
2023-03-26T12:57:31.293Z,47.73
2023-03-26T12:58:55.351Z,47.61
2023-03-26T13:00:11.113Z,48.06
2023-03-26T13:01:16.242Z,47.99
2023-03-26T13:02:33.188Z,46.80
2023-03-26T13:03:47.043Z,46.38
2023-03-26T13:05:15.383Z,47.71
2023-03-26T13:06:29.865Z,47.55
2023-03-26T13:08:07.872Z,47.97
2023-03-26T13:09:09.716Z,49.22
2023-03-26T13:10:32.245Z,48.03
2023-03-26T13:12:06.357Z,48.57
2023-03-26T13:13:32.682Z,49.17
2023-03-26T13:14:52.947Z,49.90
2023-03-26T13:15:59.442Z,51.01
2023-03-26T13:17:19.832Z,51.81
2023-03-26T13:18:21.696Z,51.70
2023-03-26T13:19:42.288Z,52.78
2023-03-26T13:20:49.636Z,51.25
2023-03-26T13:22:06.253Z,51.54
2023-03-26T13:23:08.915Z,51.20
2023-03-26T13:24:16.748Z,52.03
2023-03-26T13:25:30.822Z,50.36
2023-03-26T13:26:39.983Z,51.37
2023-03-26T13:27:57.684Z,51.34
2023-03-26T13:29:16.224Z,51.50
2023-03-26T13:30:17.970Z,50.96
2023-03-26T13:31:24.726Z,51.24
2023-03-26T13:32:59.247Z,52.11
2023-03-26T13:34:21.581Z,52.41
2023-03-26T13:35:30.342Z,50.35
2023-03-26T13:36:37.994Z,49.35
2023-03-26T13:38:06.378Z,49.32
2023-03-26T13:39:40.576Z,49.60
2023-03-26T13:40:45.459Z,49.11
2023-03-26T13:41:53.172Z,50.56
2023-03-26T13:42:56.838Z,51.23
2023-03-26T13:43:58.916Z,49.88
2023-03-26T13:45:09.355Z,49.75
2023-03-26T13:46:30.248Z,48.72
2023-03-26T13:47:35.362Z,49.47
2023-03-26T13:48:57.579Z,49.68
2023-03-26T13:50:06.776Z,51.08
2023-03-26T13:51:12.812Z,54.35
2023-03-26T13:52:20.385Z,53.43
2023-03-26T13:53:25.637Z,52.47
2023-03-26T13:54:37.771Z,52.68
2023-03-26T13:56:09.650Z,51.84
2023-03-26T13:57:21.846Z,53.23
2023-03-26T13:58:23.657Z,52.56
2023-03-26T13:59:44.261Z,51.25
2023-03-26T14:00:54.749Z,51.31
2023-03-26T14:02:02.787Z,51.88
2023-03-26T14:03:11.120Z,53.12
2023-03-26T14:04:18.487Z,53.26
2023-03-26T14:05:34.277Z,54.28
2023-03-26T14:06:42.763Z,54.30
2023-03-26T14:07:47.659Z,54.36
2023-03-26T14:08:56.713Z,55.18
2023-03-26T14:10:06.798Z,55.30
2023-03-26T14:11:11.497Z,55.14
2023-03-26T14:12:21.481Z,55.16
2023-03-26T14:13:27.229Z,55.80
2023-03-26T14:14:34.204Z,56.09
2023-03-26T14:15:36.279Z,55.77
2023-03-26T14:16:48.142Z,56.20
2023-03-26T14:18:01.978Z,56.55
2023-03-26T14:19:13.058Z,56.82
2023-03-26T14:20:18.424Z,57.92
2023-03-26T14:21:39.847Z,58.35
2023-03-26T14:22:50.134Z,57.97
2023-03-26T14:24:01.019Z,58.07
2023-03-26T14:25:02.998Z,58.42
2023-03-26T14:26:11.457Z,58.28
2023-03-26T14:27:16.280Z,58.58
2023-03-26T14:28:39.925Z,58.61
2023-03-26T14:29:56.697Z,58.57
2023-03-26T14:30:59.023Z,58.37
2023-03-26T14:32:13.391Z,58.91
2023-03-26T14:33:28.272Z,58.67
2023-03-26T14:34:35.158Z,58.33
2023-03-26T14:35:41.265Z,58.13
2023-03-26T14:37:06.232Z,58.54
2023-03-26T14:38:09.949Z,58.56
2023-03-26T14:39:21.189Z,58.75
2023-03-26T14:40:29.075Z,58.78
2023-03-26T14:41:43.645Z,58.18
2023-03-26T14:43:04.675Z,58.08
2023-03-26T14:44:09.798Z,57.70
2023-03-26T14:45:11.592Z,57.71
2023-03-26T14:46:17.067Z,57.60
2023-03-26T14:47:24.832Z,57.47
2023-03-26T14:48:34.392Z,57.53
2023-03-26T14:49:36.463Z,57.12
2023-03-26T14:50:47.097Z,56.60
2023-03-26T14:51:55.307Z,56.30
2023-03-26T14:53:00.920Z,57.28
2023-03-26T14:54:20.106Z,57.71